createdAt,value
2023-03-21T00:00:43.641Z,13.07
2023-03-21T00:03:10.368Z,13.57
2023-03-21T00:05:51.781Z,10.68
2023-03-21T00:08:18.507Z,12.13
2023-03-21T00:10:47.490Z,12.83
2023-03-21T00:13:15.854Z,11.32
2023-03-21T00:16:14.687Z,8.88
2023-03-21T00:18:46.528Z,11.27
2023-03-21T00:24:06.598Z,11.63
2023-03-21T00:26:36.147Z,9.45
2023-03-21T00:29:05.146Z,10.30
2023-03-21T00:31:31.719Z,10.93
2023-03-21T00:33:58.287Z,11.98
2023-03-21T00:36:26.115Z,12.23
2023-03-21T00:38:53.525Z,10.93
2023-03-21T00:41:35.164Z,11.93
2023-03-21T00:44:06.766Z,12.27
2023-03-21T00:46:44.099Z,9.45
2023-03-21T00:49:16.141Z,8.40
2023-03-21T00:51:43.825Z,9.32
2023-03-21T00:54:12.710Z,9.27
2023-03-21T00:56:39.277Z,10.13
2023-03-21T00:59:06.448Z,11.40
2023-03-21T01:01:33.092Z,8.50
2023-03-21T01:04:05.636Z,9.50
2023-03-21T01:06:39.530Z,9.25
2023-03-21T01:09:08.153Z,8.88
2023-03-21T01:11:35.067Z,11.00
2023-03-21T01:14:20.802Z,13.63
2023-03-21T01:16:49.697Z,6.65
2023-03-21T01:19:27.579Z,8.68
2023-03-21T01:21:56.788Z,8.32
2023-03-21T01:24:23.380Z,11.48
2023-03-21T01:26:50.154Z,11.53
2023-03-21T01:29:16.721Z,7.85
2023-03-21T01:31:43.350Z,9.05
2023-03-21T01:34:12.183Z,7.07
2023-03-21T01:36:41.219Z,7.88
2023-03-21T01:39:08.297Z,8.77
2023-03-21T01:41:44.013Z,10.02
2023-03-21T01:44:17.482Z,8.85
2023-03-21T01:47:00.412Z,9.02
2023-03-21T01:49:46.941Z,9.07
2023-03-21T01:52:26.777Z,10.60
2023-03-21T01:55:04.762Z,11.32
2023-03-21T01:57:47.294Z,9.52
2023-03-21T02:00:31.779Z,8.95
2023-03-21T02:03:11.455Z,10.38
2023-03-21T02:06:02.021Z,8.00
2023-03-21T02:08:39.284Z,10.25
2023-03-21T02:11:10.142Z,10.43
2023-03-21T02:13:36.892Z,9.55
2023-03-21T02:16:18.136Z,7.40
2023-03-21T02:19:32.849Z,6.17
2023-03-21T02:22:13.361Z,7.65
2023-03-21T02:25:01.542Z,7.85
2023-03-21T02:27:37.583Z,8.48
2023-03-21T02:30:29.449Z,9.23
2023-03-21T02:33:20.083Z,9.73
2023-03-21T02:36:14.047Z,9.45
2023-03-21T02:39:09.634Z,9.70
2023-03-21T02:41:45.110Z,7.97
2023-03-21T02:44:32.003Z,10.35
2023-03-21T02:47:22.767Z,8.07
2023-03-21T02:50:02.258Z,7.25
2023-03-21T02:52:39.177Z,8.15
2023-03-21T02:55:14.239Z,8.32
2023-03-21T02:57:46.721Z,10.68
2023-03-21T03:00:18.988Z,11.90
2023-03-21T03:02:54.636Z,8.98
2023-03-21T03:05:30.601Z,7.20
2023-03-21T03:07:57.230Z,9.13
2023-03-21T03:10:26.636Z,9.88
2023-03-21T03:13:08.461Z,7.23
2023-03-21T03:16:02.145Z,6.78
2023-03-21T03:19:13.277Z,7.28
2023-03-21T03:21:44.154Z,7.70
2023-03-21T03:24:22.935Z,6.97
2023-03-21T03:27:12.958Z,12.07
2023-03-21T03:29:45.430Z,9.73
2023-03-21T03:32:17.363Z,8.05
2023-03-21T03:34:56.284Z,8.10
2023-03-21T03:37:29.381Z,11.07
2023-03-21T03:40:08.342Z,10.07
2023-03-21T03:42:38.124Z,6.53
2023-03-21T03:45:06.799Z,8.77
2023-03-21T03:48:02.718Z,8.25
2023-03-21T03:50:42.582Z,7.70
2023-03-21T03:53:44.684Z,8.23
2023-03-21T03:56:14.276Z,10.23
2023-03-21T03:58:45.640Z,9.18
2023-03-21T04:01:12.862Z,7.82
2023-03-21T04:03:49.792Z,7.05
2023-03-21T04:06:18.983Z,8.77
2023-03-21T04:08:45.658Z,8.90
2023-03-21T04:11:16.303Z,9.15
2023-03-21T04:13:45.752Z,7.40
2023-03-21T04:16:14.760Z,7.65
2023-03-21T04:18:41.954Z,7.77
2023-03-21T04:21:13.262Z,8.38
2023-03-21T04:23:41.084Z,8.40
2023-03-21T04:26:10.089Z,7.72
2023-03-21T04:28:39.812Z,10.45
2023-03-21T04:31:19.069Z,8.73
2023-03-21T04:33:53.089Z,10.07
2023-03-21T04:36:27.703Z,6.32
2023-03-21T04:39:01.014Z,9.10
2023-03-21T04:41:30.920Z,8.60
2023-03-21T04:43:57.500Z,10.47
2023-03-21T04:46:24.323Z,10.40
2023-03-21T04:48:50.888Z,7.80
2023-03-21T04:51:17.496Z,8.25
2023-03-21T04:53:45.982Z,9.50
2023-03-21T04:56:14.941Z,8.03
2023-03-21T04:58:42.271Z,9.77
2023-03-21T05:01:09.063Z,8.75
2023-03-21T05:03:40.057Z,8.63
2023-03-21T05:06:12.336Z,9.98
2023-03-21T05:08:38.977Z,9.77
2023-03-21T05:11:06.004Z,12.32
2023-03-21T05:13:32.579Z,9.02
2023-03-21T05:15:59.175Z,7.55
2023-03-21T05:18:26.338Z,5.88
2023-03-21T05:20:56.786Z,7.97
2023-03-21T05:23:24.286Z,7.78
2023-03-21T05:25:51.060Z,8.75
2023-03-21T05:28:20.379Z,10.65
2023-03-21T05:30:47.378Z,6.05
2023-03-21T05:33:17.236Z,7.70
2023-03-21T05:35:43.835Z,7.90
2023-03-21T05:38:15.283Z,7.63
2023-03-21T05:40:41.847Z,6.95
2023-03-21T05:43:08.447Z,8.40
2023-03-21T05:45:35.017Z,5.77
2023-03-21T05:48:01.606Z,8.32
2023-03-21T05:50:30.483Z,5.88
2023-03-21T05:52:57.052Z,7.65
2023-03-21T05:55:23.858Z,10.82
2023-03-21T05:57:50.557Z,8.90
2023-03-21T06:00:18.137Z,8.77
2023-03-21T06:02:47.495Z,9.30
2023-03-21T06:05:14.142Z,6.43
2023-03-21T06:07:40.855Z,7.35
2023-03-21T06:10:10.535Z,6.23
2023-03-21T06:12:37.340Z,6.78
2023-03-21T06:15:06.128Z,6.57
2023-03-21T06:17:34.889Z,10.23
2023-03-21T06:20:01.754Z,7.45
2023-03-21T06:22:28.475Z,6.13
2023-03-21T06:24:55.284Z,7.97
2023-03-21T06:27:22.123Z,6.47
2023-03-21T06:29:48.949Z,9.73
2023-03-21T06:32:18.207Z,8.80
2023-03-21T06:34:45.037Z,9.90
2023-03-21T06:37:11.619Z,9.85
2023-03-21T06:39:40.583Z,7.82
2023-03-21T06:42:09.577Z,11.05
2023-03-21T06:44:38.617Z,9.90
2023-03-21T06:47:05.362Z,10.03
2023-03-21T06:49:32.514Z,13.20
2023-03-21T06:52:01.446Z,10.60
2023-03-21T06:54:28.231Z,15.38
2023-03-21T06:56:55.077Z,14.15
2023-03-21T06:59:22.251Z,10.07
2023-03-21T07:01:53.624Z,8.98
2023-03-21T07:04:22.939Z,11.75
2023-03-21T07:06:49.770Z,9.02
2023-03-21T07:09:17.937Z,9.00
2023-03-21T07:11:44.731Z,12.23
2023-03-21T07:14:18.879Z,8.57
2023-03-21T07:16:50.473Z,9.65
2023-03-21T07:19:19.660Z,8.48
2023-03-21T07:21:48.360Z,8.30
2023-03-21T07:24:14.937Z,7.03
2023-03-21T07:26:41.482Z,11.68
2023-03-21T07:29:10.305Z,7.68
2023-03-21T07:31:37.505Z,7.43
2023-03-21T07:34:04.214Z,6.85
2023-03-21T07:36:30.753Z,8.67
2023-03-21T07:38:57.357Z,10.10
2023-03-21T07:41:23.921Z,7.03
2023-03-21T07:43:52.844Z,6.85
2023-03-21T07:46:19.511Z,9.40
2023-03-21T07:48:46.536Z,10.57
2023-03-21T07:51:13.187Z,7.15
2023-03-21T07:53:41.954Z,10.05
2023-03-21T07:56:08.931Z,8.40
2023-03-21T07:58:35.809Z,8.68
2023-03-21T08:01:07.373Z,7.90
2023-03-21T08:03:34.056Z,8.98
2023-03-21T08:06:03.792Z,8.32
2023-03-21T08:08:30.615Z,11.98
2023-03-21T08:10:57.162Z,8.73
2023-03-21T08:13:26.720Z,12.23
2023-03-21T08:15:53.484Z,11.98
2023-03-21T08:18:22.401Z,10.18
2023-03-21T08:20:56.793Z,11.25
2023-03-21T08:23:24.710Z,10.77
2023-03-21T08:25:55.881Z,9.93
2023-03-21T08:28:23.516Z,10.90
2023-03-21T08:30:50.654Z,15.98
2023-03-21T08:33:19.455Z,38.20
2023-03-21T08:35:48.678Z,42.60
2023-03-21T08:38:15.608Z,58.90
2023-03-21T08:40:42.292Z,46.03
2023-03-21T08:43:12.687Z,29.23
2023-03-21T08:45:43.296Z,28.45
2023-03-21T08:48:13.061Z,21.60
2023-03-21T08:50:39.769Z,15.90
2023-03-21T08:53:06.341Z,15.63
2023-03-21T08:55:35.671Z,14.68
2023-03-21T08:58:02.523Z,16.52
2023-03-21T09:00:29.252Z,11.38
2023-03-21T09:03:01.574Z,11.67
2023-03-21T09:05:28.518Z,7.65
2023-03-21T09:07:55.166Z,12.57
2023-03-21T09:10:23.771Z,15.93
2023-03-21T09:12:52.445Z,9.77
2023-03-21T09:15:22.020Z,13.23
2023-03-21T09:17:53.208Z,11.82
2023-03-21T09:20:26.136Z,17.48
2023-03-21T09:22:53.896Z,31.08
2023-03-21T09:25:21.660Z,40.00
2023-03-21T09:27:51.534Z,47.73
2023-03-21T09:30:26.326Z,40.65
2023-03-21T09:32:55.811Z,51.60
2023-03-21T09:35:26.126Z,57.65
2023-03-21T09:37:57.531Z,71.00
2023-03-21T09:40:52.785Z,80.27
2023-03-21T09:43:25.612Z,145.23
2023-03-21T09:46:36.770Z,212.45
2023-03-21T09:49:13.112Z,320.98
2023-03-21T09:51:51.159Z,289.98
2023-03-21T09:54:20.965Z,270.30
2023-03-21T09:56:51.524Z,210.75
2023-03-21T09:59:28.211Z,139.55
2023-03-21T10:01:56.045Z,75.05
2023-03-21T10:04:24.731Z,75.22
2023-03-21T10:07:00.578Z,80.20
2023-03-21T10:09:30.200Z,100.95
2023-03-21T10:12:04.432Z,99.70
2023-03-21T10:14:36.352Z,86.03
2023-03-21T10:17:27.244Z,59.08
2023-03-21T10:20:21.419Z,51.43
2023-03-21T10:22:56.121Z,61.63
2023-03-21T10:25:38.383Z,54.15
2023-03-21T10:28:07.462Z,57.35
2023-03-21T10:30:56.176Z,74.05
2023-03-21T10:33:26.163Z,61.60
2023-03-21T10:35:59.936Z,61.22
2023-03-21T10:38:27.228Z,41.40
2023-03-21T10:40:54.478Z,28.83
2023-03-21T10:43:34.413Z,22.48
2023-03-21T10:46:11.369Z,20.43
2023-03-21T10:48:46.352Z,19.50
2023-03-21T10:51:20.885Z,23.05
2023-03-21T10:54:03.770Z,24.02
2023-03-21T10:56:35.056Z,29.13
2023-03-21T10:59:08.358Z,29.03
2023-03-21T11:01:40.572Z,20.80
2023-03-21T11:04:14.666Z,22.50
2023-03-21T11:06:44.456Z,52.63
2023-03-21T11:09:17.599Z,42.75
2023-03-21T11:11:50.770Z,40.83
2023-03-21T11:14:40.669Z,35.53
2023-03-21T11:17:31.291Z,15.10
2023-03-21T11:20:06.414Z,11.07
2023-03-21T11:22:44.011Z,14.13
2023-03-21T11:25:23.035Z,17.53
2023-03-21T11:27:55.455Z,34.45
2023-03-21T11:30:28.052Z,36.05
2023-03-21T11:32:57.798Z,33.05
2023-03-21T11:35:39.544Z,54.97
2023-03-21T11:38:25.993Z,49.90
2023-03-21T11:40:56.686Z,37.83
2023-03-21T11:43:34.980Z,25.27
2023-03-21T11:46:04.602Z,22.75
2023-03-21T11:48:38.067Z,24.85
2023-03-21T11:51:22.448Z,23.20
2023-03-21T11:54:01.137Z,42.80
2023-03-21T11:56:32.520Z,61.13
2023-03-21T11:59:26.804Z,81.55
2023-03-21T12:01:59.496Z,82.32
2023-03-21T12:04:27.259Z,72.43
2023-03-21T12:07:00.787Z,68.22
2023-03-21T12:09:47.642Z,60.55
2023-03-21T12:12:38.284Z,55.33
2023-03-21T12:15:23.991Z,58.15
2023-03-21T12:18:18.715Z,48.33
2023-03-21T12:20:54.361Z,48.33
2023-03-21T12:23:36.276Z,27.58
2023-03-21T12:26:23.268Z,23.40
2023-03-21T12:29:17.341Z,24.67
2023-03-21T12:31:52.930Z,24.57
2023-03-21T12:35:00.438Z,26.35
2023-03-21T12:37:33.332Z,18.50
2023-03-21T12:40:26.149Z,16.90
2023-03-21T12:43:18.916Z,14.30
2023-03-21T12:45:53.453Z,17.50
2023-03-21T12:48:32.819Z,15.50
2023-03-21T12:51:03.652Z,16.13
2023-03-21T12:53:40.595Z,16.60
2023-03-21T12:56:12.015Z,27.00
2023-03-21T12:58:56.828Z,32.90
2023-03-21T13:01:27.435Z,30.33
2023-03-21T13:04:17.359Z,28.92
2023-03-21T13:06:46.804Z,20.95
2023-03-21T13:09:36.750Z,14.52
2023-03-21T13:12:22.336Z,12.90
2023-03-21T13:15:24.346Z,13.60
2023-03-21T13:17:57.896Z,11.80
2023-03-21T13:20:46.637Z,9.73
2023-03-21T13:23:14.001Z,16.98
2023-03-21T13:25:47.272Z,10.77
2023-03-21T13:28:29.109Z,9.68
2023-03-21T13:31:16.017Z,12.63
2023-03-21T13:33:44.996Z,12.30
2023-03-21T13:36:17.363Z,12.80
2023-03-21T13:38:50.549Z,16.23
2023-03-21T13:41:38.965Z,10.68
2023-03-21T13:44:08.980Z,19.48
2023-03-21T13:46:53.733Z,14.60
2023-03-21T13:49:38.155Z,14.75
2023-03-21T13:52:11.124Z,12.73
2023-03-21T13:54:54.605Z,9.90
2023-03-21T13:57:23.161Z,14.23
2023-03-21T13:59:52.778Z,16.42
2023-03-21T14:02:32.815Z,10.57
2023-03-21T14:05:07.506Z,14.80
2023-03-21T14:07:41.167Z,14.57
2023-03-21T14:10:29.759Z,20.83
2023-03-21T14:12:57.511Z,20.92
2023-03-21T14:15:27.755Z,26.13
2023-03-21T14:18:10.899Z,22.60
2023-03-21T14:20:56.644Z,30.10
2023-03-21T14:23:25.965Z,34.88
2023-03-21T14:25:53.230Z,35.08
2023-03-21T14:28:24.107Z,32.10
2023-03-21T14:30:54.772Z,32.67
2023-03-21T14:33:27.330Z,51.15
2023-03-21T14:35:58.404Z,43.22
2023-03-21T14:38:34.333Z,31.27
2023-03-21T14:41:04.319Z,27.52
2023-03-21T14:43:34.095Z,34.07
2023-03-21T14:46:05.826Z,38.25
2023-03-21T14:48:36.883Z,41.30
2023-03-21T14:51:10.237Z,35.90
2023-03-21T14:53:42.463Z,25.02
2023-03-21T14:56:23.773Z,19.70
2023-03-21T14:58:52.467Z,21.40
2023-03-21T15:01:27.483Z,25.35
2023-03-21T15:03:56.484Z,19.85
2023-03-21T15:06:23.586Z,17.27
2023-03-21T15:09:00.576Z,16.87
2023-03-21T15:11:42.378Z,21.17
2023-03-21T15:14:15.861Z,20.67
2023-03-21T15:16:46.014Z,16.45
2023-03-21T15:19:20.805Z,16.83
2023-03-21T15:21:54.388Z,15.23
2023-03-21T15:24:29.496Z,15.40
2023-03-21T15:27:04.571Z,11.55
2023-03-21T15:29:34.572Z,13.23
2023-03-21T15:32:05.468Z,11.20
2023-03-21T15:34:32.602Z,14.33
2023-03-21T15:37:06.410Z,13.00
2023-03-21T15:39:36.601Z,12.30
2023-03-21T15:42:05.116Z,13.10
2023-03-21T15:44:33.651Z,13.02
2023-03-21T15:47:00.678Z,14.27
2023-03-21T15:49:36.694Z,17.25
2023-03-21T15:52:16.982Z,14.90
2023-03-21T15:54:50.931Z,15.48
2023-03-21T15:57:20.578Z,18.45
2023-03-21T15:59:47.928Z,17.17
2023-03-21T16:02:20.550Z,14.43
2023-03-21T16:04:56.282Z,16.10
2023-03-21T16:07:24.561Z,14.70
2023-03-21T16:10:00.758Z,22.25
2023-03-21T16:12:30.537Z,16.17
2023-03-21T16:14:59.495Z,19.02
2023-03-21T16:17:33.436Z,18.75
2023-03-21T16:20:00.664Z,14.45
2023-03-21T16:22:35.726Z,15.73
2023-03-21T16:25:05.263Z,15.97
2023-03-21T16:27:34.216Z,22.15
2023-03-21T16:30:01.449Z,16.75
2023-03-21T16:32:28.779Z,18.80
2023-03-21T16:34:56.131Z,19.38
2023-03-21T16:37:22.767Z,17.33
2023-03-21T16:39:49.606Z,12.50
2023-03-21T16:42:16.272Z,14.40
2023-03-21T16:44:45.261Z,14.60
2023-03-21T16:47:17.162Z,17.20
2023-03-21T16:49:44.620Z,15.10
2023-03-21T16:52:16.980Z,16.13
2023-03-21T16:54:43.716Z,20.50
2023-03-21T16:57:31.554Z,19.13
2023-03-21T16:59:58.206Z,21.20
2023-03-21T17:02:26.287Z,19.03
2023-03-21T17:04:55.123Z,34.05
2023-03-21T17:07:21.731Z,26.17
2023-03-21T17:09:48.299Z,24.77
2023-03-21T17:12:16.351Z,19.42
2023-03-21T17:14:45.722Z,21.87
2023-03-21T17:17:16.377Z,18.50
2023-03-21T17:19:43.517Z,19.70
2023-03-21T17:22:13.225Z,21.45
2023-03-21T17:24:42.907Z,19.33
2023-03-21T17:27:14.538Z,16.43
2023-03-21T17:29:41.293Z,23.73
2023-03-21T17:32:10.290Z,40.40
2023-03-21T17:34:36.855Z,42.80
2023-03-21T17:37:03.597Z,32.75
2023-03-21T17:39:30.345Z,25.13
2023-03-21T17:42:01.721Z,16.60
2023-03-21T17:44:28.350Z,14.27
2023-03-21T17:46:55.047Z,14.38
2023-03-21T17:49:24.217Z,11.55
2023-03-21T17:51:51.983Z,14.90
2023-03-21T17:54:20.985Z,56.78
2023-03-21T17:56:48.498Z,455.95
2023-03-21T17:59:15.492Z,909.97
2023-03-21T18:01:45.143Z,1224.35
2023-03-21T18:04:11.774Z,1385.23
2023-03-21T18:06:41.883Z,1383.28
2023-03-21T18:09:13.313Z,1205.13
2023-03-21T18:11:42.103Z,1330.85
2023-03-21T18:14:16.324Z,1020.78
2023-03-21T18:16:50.749Z,791.00
2023-03-21T18:19:17.543Z,640.65
2023-03-21T18:21:45.936Z,494.73
2023-03-21T18:24:16.733Z,348.92
2023-03-21T18:26:47.063Z,219.95
2023-03-21T18:30:17.575Z,132.47
2023-03-21T18:32:09.038Z,76.75
2023-03-21T18:34:39.809Z,36.05
2023-03-21T18:37:13.211Z,19.77
2023-03-21T18:39:42.580Z,20.55
2023-03-21T18:42:16.773Z,21.13
2023-03-21T18:44:47.931Z,20.25
2023-03-21T18:47:15.310Z,17.98
2023-03-21T18:50:12.642Z,18.65
2023-03-21T18:52:28.704Z,23.08
2023-03-21T18:54:58.642Z,22.77
2023-03-21T18:57:36.486Z,34.03
2023-03-21T19:00:17.109Z,43.33
2023-03-21T19:02:48.077Z,29.83
2023-03-21T19:05:18.012Z,38.65
2023-03-21T19:07:50.539Z,29.47
2023-03-21T19:10:20.703Z,25.67
2023-03-21T19:12:49.309Z,21.48
2023-03-21T19:15:19.456Z,29.13
2023-03-21T19:20:38.395Z,16.43
2023-03-21T19:23:09.354Z,19.92
2023-03-21T19:25:39.333Z,16.95
2023-03-21T19:28:08.549Z,15.85
2023-03-21T19:30:35.434Z,14.57
2023-03-21T19:33:04.605Z,17.73
2023-03-21T19:35:37.334Z,32.22
2023-03-21T19:38:04.073Z,44.53
2023-03-21T19:40:31.467Z,31.58
2023-03-21T19:42:58.211Z,34.55
2023-03-21T19:45:24.977Z,23.53
2023-03-21T19:47:54.092Z,19.52
2023-03-21T19:50:49.280Z,15.50
2023-03-21T19:53:07.668Z,20.10
2023-03-21T19:55:34.230Z,16.55
2023-03-21T19:58:03.275Z,16.67
2023-03-21T20:00:30.354Z,15.13
2023-03-21T20:02:59.630Z,15.20
2023-03-21T20:05:29.892Z,12.38
2023-03-21T20:07:57.366Z,12.32
2023-03-21T20:10:27.644Z,11.37
2023-03-21T20:12:55.238Z,10.73
2023-03-21T20:15:26.709Z,12.63
2023-03-21T20:17:55.046Z,15.23
2023-03-21T20:20:21.691Z,11.75
2023-03-21T20:23:06.238Z,11.40
2023-03-21T20:25:39.782Z,13.13
2023-03-21T20:28:24.319Z,10.75
2023-03-21T20:30:58.487Z,13.00
2023-03-21T20:33:25.375Z,9.50
2023-03-21T20:36:37.393Z,11.53
2023-03-21T20:38:56.324Z,13.50
2023-03-21T20:41:23.014Z,12.23
2023-03-21T20:46:41.763Z,13.40
2023-03-21T20:49:08.429Z,9.17
2023-03-21T20:54:26.474Z,10.90
2023-03-21T20:56:53.094Z,9.40
2023-03-21T20:59:26.532Z,9.65
2023-03-21T21:01:55.852Z,13.07
2023-03-21T21:04:41.265Z,11.68
2023-03-21T21:07:21.191Z,12.18
2023-03-21T21:09:48.629Z,11.30
2023-03-21T21:12:16.860Z,12.32
2023-03-21T21:14:44.136Z,12.90
2023-03-21T21:17:28.274Z,10.75
2023-03-21T21:20:01.572Z,11.55
2023-03-21T21:22:28.763Z,12.00
2023-03-21T21:24:58.418Z,9.30
2023-03-21T21:27:25.183Z,13.53
2023-03-21T21:29:55.200Z,8.40
2023-03-21T21:32:21.745Z,9.80
2023-03-21T21:34:50.642Z,11.25
2023-03-21T21:37:17.252Z,13.00
2023-03-21T21:39:43.889Z,12.77
2023-03-21T21:42:10.466Z,10.52
2023-03-21T21:44:44.249Z,11.63
2023-03-21T21:47:14.321Z,15.85
2023-03-21T21:49:43.203Z,11.43
2023-03-21T21:52:22.012Z,13.90
2023-03-21T21:54:49.941Z,13.35
2023-03-21T21:57:19.032Z,14.00
2023-03-21T21:59:46.926Z,11.88
2023-03-21T22:02:16.900Z,12.55
2023-03-21T22:04:43.712Z,15.00
2023-03-21T22:07:14.688Z,9.50
2023-03-21T22:09:42.389Z,10.88
2023-03-21T22:12:13.594Z,11.30
2023-03-21T22:14:40.354Z,15.40
2023-03-21T22:17:07.388Z,12.00
2023-03-21T22:19:34.083Z,10.68
2023-03-21T22:22:02.877Z,12.82
2023-03-21T22:24:29.486Z,10.45
2023-03-21T22:26:58.115Z,15.27
2023-03-21T22:29:26.111Z,12.77
2023-03-21T22:31:56.109Z,15.82
2023-03-21T22:34:24.580Z,13.88
2023-03-21T22:36:52.019Z,12.13
2023-03-21T22:39:19.901Z,9.45
2023-03-21T22:41:46.628Z,9.20
2023-03-21T22:44:13.523Z,12.50
2023-03-21T22:46:40.425Z,10.35
2023-03-21T22:49:07.150Z,11.40
2023-03-21T22:51:33.973Z,8.77
2023-03-21T22:54:02.779Z,9.57
2023-03-21T22:56:29.421Z,8.95
2023-03-21T22:59:00.299Z,8.82
2023-03-21T23:01:27.023Z,11.75
2023-03-21T23:03:56.755Z,10.65
2023-03-21T23:06:25.866Z,13.60
2023-03-21T23:08:52.446Z,11.20
2023-03-21T23:11:19.145Z,8.98
2023-03-21T23:13:47.599Z,9.65
2023-03-21T23:16:18.471Z,16.33
2023-03-21T23:18:45.067Z,22.87
2023-03-21T23:21:13.889Z,18.70
2023-03-21T23:23:50.433Z,17.17
2023-03-21T23:26:19.232Z,18.73
2023-03-21T23:28:48.316Z,18.23
2023-03-21T23:31:17.622Z,13.67
2023-03-21T23:33:45.424Z,11.98
2023-03-21T23:36:12.975Z,10.43
2023-03-21T23:38:41.876Z,13.30
2023-03-21T23:41:13.194Z,11.55
2023-03-21T23:43:39.888Z,10.87
2023-03-21T23:46:09.223Z,7.63
2023-03-21T23:48:38.317Z,11.70
2023-03-21T23:51:04.986Z,9.13
2023-03-21T23:53:31.670Z,10.38
2023-03-21T23:55:58.721Z,15.43
2023-03-21T23:58:28.028Z,10.88
